sensor_id;sensor_type;location;lat;lon;timestamp;pressure;altitude;pressure_sealevel;temperature;humidity
81835;BME280;71272;52.166;4.498;2023-07-16T00:00:04;100764.78;;;16.59;74.61
81835;BME280;71272;52.166;4.498;2023-07-16T00:02:30;100767.03;;;16.64;74.60
81835;BME280;71272;52.166;4.498;2023-07-16T00:04:55;100762.88;;;16.69;73.84
81835;BME280;71272;52.166;4.498;2023-07-16T00:07:20;100754.13;;;16.63;73.15
81835;BME280;71272;52.166;4.498;2023-07-16T00:09:45;100753.34;;;16.62;73.51
81835;BME280;71272;52.166;4.498;2023-07-16T00:12:11;100741.41;;;16.55;73.56
81835;BME280;71272;52.166;4.498;2023-07-16T00:14:36;100757.50;;;16.58;73.06
81835;BME280;71272;52.166;4.498;2023-07-16T00:17:02;100746.34;;;16.67;72.39
81835;BME280;71272;52.166;4.498;2023-07-16T00:19:27;100753.19;;;16.82;71.86
81835;BME280;71272;52.166;4.498;2023-07-16T00:21:52;100753.00;;;16.90;71.16
81835;BME280;71272;52.166;4.498;2023-07-16T00:24:18;100747.00;;;16.88;70.86
81835;BME280;71272;52.166;4.498;2023-07-16T00:26:43;100747.94;;;16.97;70.47
81835;BME280;71272;52.166;4.498;2023-07-16T00:29:09;100755.28;;;16.95;70.51
81835;BME280;71272;52.166;4.498;2023-07-16T00:31:34;100749.31;;;17.05;70.32
81835;BME280;71272;52.166;4.498;2023-07-16T00:33:59;100744.53;;;17.02;70.22
81835;BME280;71272;52.166;4.498;2023-07-16T00:36:25;100755.41;;;17.04;70.63
81835;BME280;71272;52.166;4.498;2023-07-16T00:38:50;100730.38;;;17.02;70.36
81835;BME280;71272;52.166;4.498;2023-07-16T00:41:15;100732.41;;;17.02;71.01
81835;BME280;71272;52.166;4.498;2023-07-16T00:43:41;100747.38;;;17.02;70.56
81835;BME280;71272;52.166;4.498;2023-07-16T00:46:07;100747.69;;;17.04;70.62
81835;BME280;71272;52.166;4.498;2023-07-16T00:48:33;100748.50;;;17.05;70.46
81835;BME280;71272;52.166;4.498;2023-07-16T00:51:00;100741.94;;;17.08;70.33
81835;BME280;71272;52.166;4.498;2023-07-16T00:53:25;100767.47;;;17.21;70.06
81835;BME280;71272;52.166;4.498;2023-07-16T00:55:51;100766.69;;;17.33;69.76
81835;BME280;71272;52.166;4.498;2023-07-16T00:58:16;100761.25;;;17.39;69.54
81835;BME280;71272;52.166;4.498;2023-07-16T01:00:42;100759.56;;;17.41;70.17
81835;BME280;71272;52.166;4.498;2023-07-16T01:03:09;100761.25;;;17.39;70.64
81835;BME280;71272;52.166;4.498;2023-07-16T01:05:49;100768.03;;;17.28;70.51
81835;BME280;71272;52.166;4.498;2023-07-16T01:11:04;100765.56;;;17.30;69.66
81835;BME280;71272;52.166;4.498;2023-07-16T01:13:30;100763.94;;;17.17;70.52
81835;BME280;71272;52.166;4.498;2023-07-16T01:15:56;100764.16;;;17.09;70.82
81835;BME280;71272;52.166;4.498;2023-07-16T01:18:21;100747.50;;;17.12;71.15
81835;BME280;71272;52.166;4.498;2023-07-16T01:20:47;100758.72;;;17.15;70.61
81835;BME280;71272;52.166;4.498;2023-07-16T01:29:36;100755.78;;;17.06;71.99
81835;BME280;71272;52.166;4.498;2023-07-16T01:32:03;100762.78;;;17.01;71.79
81835;BME280;71272;52.166;4.498;2023-07-16T01:34:32;100770.72;;;17.06;71.85
81835;BME280;71272;52.166;4.498;2023-07-16T01:37:03;100765.41;;;17.21;71.51
81835;BME280;71272;52.166;4.498;2023-07-16T01:39:29;100755.69;;;17.22;71.52
81835;BME280;71272;52.166;4.498;2023-07-16T01:41:55;100764.53;;;17.24;71.40
81835;BME280;71272;52.166;4.498;2023-07-16T01:44:21;100777.09;;;17.23;71.89
81835;BME280;71272;52.166;4.498;2023-07-16T01:47:11;100763.94;;;17.17;71.70
81835;BME280;71272;52.166;4.498;2023-07-16T01:49:40;100762.47;;;17.12;71.95
81835;BME280;71272;52.166;4.498;2023-07-16T01:52:07;100742.16;;;17.01;71.95
81835;BME280;71272;52.166;4.498;2023-07-16T01:54:33;100759.16;;;17.01;72.47
81835;BME280;71272;52.166;4.498;2023-07-16T01:56:58;100768.44;;;17.01;72.21
81835;BME280;71272;52.166;4.498;2023-07-16T01:59:23;100763.31;;;16.96;72.45
81835;BME280;71272;52.166;4.498;2023-07-16T02:01:49;100777.53;;;17.09;72.06
81835;BME280;71272;52.166;4.498;2023-07-16T02:04:14;100761.00;;;17.20;72.42
81835;BME280;71272;52.166;4.498;2023-07-16T02:06:40;100763.59;;;17.15;73.12
81835;BME280;71272;52.166;4.498;2023-07-16T02:09:05;100759.94;;;17.01;73.77
81835;BME280;71272;52.166;4.498;2023-07-16T02:11:30;100758.22;;;16.91;73.63
81835;BME280;71272;52.166;4.498;2023-07-16T02:13:56;100765.25;;;16.99;72.57
81835;BME280;71272;52.166;4.498;2023-07-16T02:16:21;100768.56;;;16.98;72.40
81835;BME280;71272;52.166;4.498;2023-07-16T02:18:46;100759.25;;;16.97;72.72
81835;BME280;71272;52.166;4.498;2023-07-16T02:21:11;100760.06;;;16.98;72.47
81835;BME280;71272;52.166;4.498;2023-07-16T02:23:37;100772.06;;;17.02;71.92
81835;BME280;71272;52.166;4.498;2023-07-16T02:26:02;100758.72;;;17.02;71.74
81835;BME280;71272;52.166;4.498;2023-07-16T02:28:27;100760.06;;;16.98;71.59
81835;BME280;71272;52.166;4.498;2023-07-16T02:30:53;100757.09;;;17.01;71.69
81835;BME280;71272;52.166;4.498;2023-07-16T02:33:18;100759.75;;;17.08;71.69
81835;BME280;71272;52.166;4.498;2023-07-16T02:35:47;100749.41;;;17.02;71.80
81835;BME280;71272;52.166;4.498;2023-07-16T02:38:17;100764.69;;;17.04;71.70
81835;BME280;71272;52.166;4.498;2023-07-16T02:40:46;100777.53;;;17.09;71.55
81835;BME280;71272;52.166;4.498;2023-07-16T02:43:12;100771.97;;;17.18;71.20
81835;BME280;71272;52.166;4.498;2023-07-16T02:45:38;100764.84;;;17.26;71.00
81835;BME280;71272;52.166;4.498;2023-07-16T02:48:04;100775.63;;;17.31;70.77
81835;BME280;71272;52.166;4.498;2023-07-16T02:50:31;100774.84;;;17.31;71.08
81835;BME280;71272;52.166;4.498;2023-07-16T02:52:58;100775.78;;;17.41;71.14
81835;BME280;71272;52.166;4.498;2023-07-16T02:55:23;100772.81;;;17.44;70.70
81835;BME280;71272;52.166;4.498;2023-07-16T02:57:48;100764.09;;;17.39;70.85
81835;BME280;71272;52.166;4.498;2023-07-16T03:00:14;100774.31;;;17.49;70.98
81835;BME280;71272;52.166;4.498;2023-07-16T03:02:39;100770.22;;;17.50;70.89
81835;BME280;71272;52.166;4.498;2023-07-16T03:05:05;100785.06;;;17.54;71.33
81835;BME280;71272;52.166;4.498;2023-07-16T03:07:30;100788.13;;;17.47;71.75
81835;BME280;71272;52.166;4.498;2023-07-16T03:09:56;100756.50;;;17.36;71.83
81835;BME280;71272;52.166;4.498;2023-07-16T03:12:21;100789.72;;;17.35;72.38
81835;BME280;71272;52.166;4.498;2023-07-16T03:14:47;100782.75;;;17.23;72.46
81835;BME280;71272;52.166;4.498;2023-07-16T03:17:12;100792.75;;;17.28;72.86
81835;BME280;71272;52.166;4.498;2023-07-16T03:19:37;100796.38;;;17.28;72.17
81835;BME280;71272;52.166;4.498;2023-07-16T03:22:03;100783.34;;;17.31;71.58
81835;BME280;71272;52.166;4.498;2023-07-16T03:24:29;100811.38;;;17.42;71.38
81835;BME280;71272;52.166;4.498;2023-07-16T03:26:54;100818.19;;;17.44;72.05
81835;BME280;71272;52.166;4.498;2023-07-16T03:29:19;100810.69;;;17.38;72.09
81835;BME280;71272;52.166;4.498;2023-07-16T03:31:45;100824.19;;;17.34;72.78
81835;BME280;71272;52.166;4.498;2023-07-16T03:34:10;100819.50;;;17.14;74.85
81835;BME280;71272;52.166;4.498;2023-07-16T03:36:35;100826.25;;;17.04;75.70
81835;BME280;71272;52.166;4.498;2023-07-16T03:39:01;100835.94;;;16.90;76.80
81835;BME280;71272;52.166;4.498;2023-07-16T03:41:26;100825.25;;;16.81;77.28
81835;BME280;71272;52.166;4.498;2023-07-16T03:43:51;100830.28;;;16.74;76.94
81835;BME280;71272;52.166;4.498;2023-07-16T03:46:17;100844.44;;;16.74;77.16
81835;BME280;71272;52.166;4.498;2023-07-16T03:48:42;100844.31;;;16.81;77.69
81835;BME280;71272;52.166;4.498;2023-07-16T03:51:07;100843.75;;;16.70;78.68
81835;BME280;71272;52.166;4.498;2023-07-16T03:53:33;100845.44;;;16.67;79.33
81835;BME280;71272;52.166;4.498;2023-07-16T03:55:58;100849.84;;;16.68;78.87
81835;BME280;71272;52.166;4.498;2023-07-16T03:58:23;100845.09;;;16.65;78.45
81835;BME280;71272;52.166;4.498;2023-07-16T04:00:48;100848.28;;;16.67;78.75
81835;BME280;71272;52.166;4.498;2023-07-16T04:03:14;100843.59;;;16.77;77.78
81835;BME280;71272;52.166;4.498;2023-07-16T04:05:39;100840.94;;;16.70;78.11
81835;BME280;71272;52.166;4.498;2023-07-16T04:08:04;100846.50;;;16.73;78.25
81835;BME280;71272;52.166;4.498;2023-07-16T04:10:30;100849.69;;;16.75;78.12
81835;BME280;71272;52.166;4.498;2023-07-16T04:12:55;100854.81;;;16.80;78.19
81835;BME280;71272;52.166;4.498;2023-07-16T04:15:20;100837.03;;;16.80;78.54
81835;BME280;71272;52.166;4.498;2023-07-16T04:17:46;100852.34;;;16.82;78.03
81835;BME280;71272;52.166;4.498;2023-07-16T04:20:11;100849.75;;;16.88;77.77
81835;BME280;71272;52.166;4.498;2023-07-16T04:22:37;100860.28;;;16.88;77.50
81835;BME280;71272;52.166;4.498;2023-07-16T04:25:02;100862.44;;;16.83;77.54
81835;BME280;71272;52.166;4.498;2023-07-16T04:27:28;100863.59;;;16.86;76.96
81835;BME280;71272;52.166;4.498;2023-07-16T04:29:54;100850.53;;;16.89;76.72
81835;BME280;71272;52.166;4.498;2023-07-16T04:32:19;100844.72;;;16.79;76.44
81835;BME280;71272;52.166;4.498;2023-07-16T04:34:44;100868.25;;;16.93;76.13
81835;BME280;71272;52.166;4.498;2023-07-16T04:37:10;100873.19;;;16.89;76.50
81835;BME280;71272;52.166;4.498;2023-07-16T04:39:35;100863.47;;;16.90;75.68
81835;BME280;71272;52.166;4.498;2023-07-16T04:42:00;100867.78;;;17.11;74.51
81835;BME280;71272;52.166;4.498;2023-07-16T04:44:26;100878.34;;;17.23;75.13
81835;BME280;71272;52.166;4.498;2023-07-16T04:46:51;100894.38;;;17.13;75.67
81835;BME280;71272;52.166;4.498;2023-07-16T04:49:16;100891.69;;;16.93;77.76
81835;BME280;71272;52.166;4.498;2023-07-16T04:51:42;100886.75;;;16.97;76.71
81835;BME280;71272;52.166;4.498;2023-07-16T04:54:07;100888.50;;;16.91;77.21
81835;BME280;71272;52.166;4.498;2023-07-16T04:56:32;100885.25;;;16.93;76.20
81835;BME280;71272;52.166;4.498;2023-07-16T04:58:57;100893.09;;;17.01;76.07
81835;BME280;71272;52.166;4.498;2023-07-16T05:01:23;100877.56;;;17.22;74.79
81835;BME280;71272;52.166;4.498;2023-07-16T05:03:48;100892.31;;;17.30;74.26
81835;BME280;71272;52.166;4.498;2023-07-16T05:06:14;100902.75;;;17.33;73.67
81835;BME280;71272;52.166;4.498;2023-07-16T05:08:39;100896.22;;;17.49;72.30
81835;BME280;71272;52.166;4.498;2023-07-16T05:11:04;100894.22;;;17.75;71.22
81835;BME280;71272;52.166;4.498;2023-07-16T05:13:30;100890.75;;;17.84;70.23
81835;BME280;71272;52.166;4.498;2023-07-16T05:15:55;100906.66;;;18.19;69.30
81835;BME280;71272;52.166;4.498;2023-07-16T05:18:20;100906.31;;;18.30;68.52
81835;BME280;71272;52.166;4.498;2023-07-16T05:20:47;100894.41;;;17.84;69.62
81835;BME280;71272;52.166;4.498;2023-07-16T05:23:13;100918.78;;;17.82;69.24
81835;BME280;71272;52.166;4.498;2023-07-16T05:25:38;100907.59;;;17.62;70.40
81835;BME280;71272;52.166;4.498;2023-07-16T05:28:04;100902.03;;;17.58;70.52
81835;BME280;71272;52.166;4.498;2023-07-16T05:30:29;100917.59;;;19.51;64.11
81835;BME280;71272;52.166;4.498;2023-07-16T05:32:55;100920.69;;;19.44;62.46
81835;BME280;71272;52.166;4.498;2023-07-16T05:35:20;100912.69;;;21.22;56.28
81835;BME280;71272;52.166;4.498;2023-07-16T05:37:45;100925.31;;;20.35;59.19
81835;BME280;71272;52.166;4.498;2023-07-16T05:40:11;100929.69;;;21.44;55.39
81835;BME280;71272;52.166;4.498;2023-07-16T05:42:36;100921.25;;;22.77;50.59
81835;BME280;71272;52.166;4.498;2023-07-16T05:45:01;100936.72;;;24.17;47.02
81835;BME280;71272;52.166;4.498;2023-07-16T05:47:27;100934.22;;;21.14;55.51
81835;BME280;71272;52.166;4.498;2023-07-16T05:49:52;100927.81;;;20.64;59.94
81835;BME280;71272;52.166;4.498;2023-07-16T05:52:18;100921.94;;;19.21;66.03
81835;BME280;71272;52.166;4.498;2023-07-16T05:54:43;100934.09;;;18.74;67.01
81835;BME280;71272;52.166;4.498;2023-07-16T05:57:10;100941.59;;;18.68;67.19
81835;BME280;71272;52.166;4.498;2023-07-16T05:59:35;100943.00;;;19.89;62.80
81835;BME280;71272;52.166;4.498;2023-07-16T06:02:05;100938.28;;;19.29;64.93
81835;BME280;71272;52.166;4.498;2023-07-16T06:04:31;100930.88;;;18.97;66.17
81835;BME280;71272;52.166;4.498;2023-07-16T06:06:56;100942.84;;;18.92;66.70
81835;BME280;71272;52.166;4.498;2023-07-16T06:09:21;100934.13;;;18.61;67.70
81835;BME280;71272;52.166;4.498;2023-07-16T06:11:47;100932.53;;;18.60;68.03
81835;BME280;71272;52.166;4.498;2023-07-16T06:14:13;100947.56;;;19.08;66.22
81835;BME280;71272;52.166;4.498;2023-07-16T06:16:38;100927.97;;;18.88;66.35
81835;BME280;71272;52.166;4.498;2023-07-16T06:19:03;100932.09;;;18.74;66.95
81835;BME280;71272;52.166;4.498;2023-07-16T06:21:29;100941.72;;;18.90;66.31
81835;BME280;71272;52.166;4.498;2023-07-16T06:23:54;100949.31;;;19.27;64.67
81835;BME280;71272;52.166;4.498;2023-07-16T06:26:19;100944.06;;;19.83;61.06
81835;BME280;71272;52.166;4.498;2023-07-16T06:28:45;100952.59;;;20.45;58.84
81835;BME280;71272;52.166;4.498;2023-07-16T06:31:14;100958.09;;;20.39;58.36
81835;BME280;71272;52.166;4.498;2023-07-16T06:33:39;100975.25;;;19.86;60.26
81835;BME280;71272;52.166;4.498;2023-07-16T06:36:05;100962.59;;;19.87;59.88
81835;BME280;71272;52.166;4.498;2023-07-16T06:38:30;100970.53;;;20.24;58.84
81835;BME280;71272;52.166;4.498;2023-07-16T06:40:55;100972.56;;;21.04;55.45
81835;BME280;71272;52.166;4.498;2023-07-16T06:43:21;100981.38;;;22.16;52.37
81835;BME280;71272;52.166;4.498;2023-07-16T06:45:49;100981.28;;;22.87;50.01
81835;BME280;71272;52.166;4.498;2023-07-16T06:48:14;100978.22;;;22.90;50.33
81835;BME280;71272;52.166;4.498;2023-07-16T06:50:40;100985.59;;;23.69;47.82
81835;BME280;71272;52.166;4.498;2023-07-16T06:53:05;100987.44;;;23.18;49.50
81835;BME280;71272;52.166;4.498;2023-07-16T06:55:30;101002.22;;;23.80;48.16
81835;BME280;71272;52.166;4.498;2023-07-16T06:57:56;100994.53;;;23.47;49.30
81835;BME280;71272;52.166;4.498;2023-07-16T07:00:21;101011.28;;;21.51;55.23
81835;BME280;71272;52.166;4.498;2023-07-16T07:02:46;100980.91;;;20.80;59.02
81835;BME280;71272;52.166;4.498;2023-07-16T07:05:12;101005.56;;;20.33;61.02
81835;BME280;71272;52.166;4.498;2023-07-16T07:07:37;100997.66;;;20.06;62.19
81835;BME280;71272;52.166;4.498;2023-07-16T07:10:03;101011.84;;;20.28;61.38
81835;BME280;71272;52.166;4.498;2023-07-16T07:12:28;101019.13;;;21.01;58.29
81835;BME280;71272;52.166;4.498;2023-07-16T07:14:53;100998.03;;;20.89;58.43
81835;BME280;71272;52.166;4.498;2023-07-16T07:17:19;101032.34;;;20.14;60.97
81835;BME280;71272;52.166;4.498;2023-07-16T07:19:44;101009.31;;;21.02;58.06
81835;BME280;71272;52.166;4.498;2023-07-16T07:22:10;101020.34;;;22.56;52.02
81835;BME280;71272;52.166;4.498;2023-07-16T07:24:36;101039.19;;;21.47;55.57
81835;BME280;71272;52.166;4.498;2023-07-16T07:27:01;101041.34;;;21.15;57.42
81835;BME280;71272;52.166;4.498;2023-07-16T07:29:26;101040.16;;;20.54;58.90
81835;BME280;71272;52.166;4.498;2023-07-16T07:31:52;101036.28;;;20.38;59.90
81835;BME280;71272;52.166;4.498;2023-07-16T07:34:18;101038.28;;;20.07;61.16
81835;BME280;71272;52.166;4.498;2023-07-16T07:36:43;101026.19;;;19.93;60.82
81835;BME280;71272;52.166;4.498;2023-07-16T07:39:08;101037.16;;;20.04;61.40
81835;BME280;71272;52.166;4.498;2023-07-16T07:41:34;101028.97;;;20.06;61.33
81835;BME280;71272;52.166;4.498;2023-07-16T07:43:59;101048.28;;;20.33;60.58
81835;BME280;71272;52.166;4.498;2023-07-16T07:46:24;101044.25;;;20.00;61.99
81835;BME280;71272;52.166;4.498;2023-07-16T07:48:50;101043.69;;;20.58;60.44
81835;BME280;71272;52.166;4.498;2023-07-16T07:51:15;101048.66;;;21.25;58.02
81835;BME280;71272;52.166;4.498;2023-07-16T07:53:40;101046.41;;;23.40;51.32
81835;BME280;71272;52.166;4.498;2023-07-16T07:56:06;101058.78;;;23.22;51.31
81835;BME280;71272;52.166;4.498;2023-07-16T07:58:31;101064.34;;;22.41;53.35
81835;BME280;71272;52.166;4.498;2023-07-16T08:00:56;101039.78;;;21.33;55.75
81835;BME280;71272;52.166;4.498;2023-07-16T08:03:22;101055.97;;;20.77;59.80
81835;BME280;71272;52.166;4.498;2023-07-16T08:05:50;101058.09;;;20.54;60.52
81835;BME280;71272;52.166;4.498;2023-07-16T08:08:16;101062.13;;;20.22;62.46
81835;BME280;71272;52.166;4.498;2023-07-16T08:10:42;101051.63;;;21.22;58.69
81835;BME280;71272;52.166;4.498;2023-07-16T08:13:08;101065.09;;;21.12;58.73
81835;BME280;71272;52.166;4.498;2023-07-16T08:15:33;101070.13;;;21.85;54.61
81835;BME280;71272;52.166;4.498;2023-07-16T08:18:00;101074.88;;;21.02;57.10
81835;BME280;71272;52.166;4.498;2023-07-16T08:20:26;101089.06;;;20.83;58.13
81835;BME280;71272;52.166;4.498;2023-07-16T08:22:53;101060.69;;;20.71;58.76
81835;BME280;71272;52.166;4.498;2023-07-16T08:25:18;101103.19;;;21.37;56.90
81835;BME280;71272;52.166;4.498;2023-07-16T08:27:44;101093.38;;;20.88;59.05
81835;BME280;71272;52.166;4.498;2023-07-16T08:30:09;101087.25;;;21.08;58.86
81835;BME280;71272;52.166;4.498;2023-07-16T08:32:35;101092.41;;;20.82;58.59
81835;BME280;71272;52.166;4.498;2023-07-16T08:35:00;101089.31;;;20.67;59.95
81835;BME280;71272;52.166;4.498;2023-07-16T08:37:25;101096.44;;;20.63;59.53
81835;BME280;71272;52.166;4.498;2023-07-16T08:39:52;101108.16;;;19.99;61.86
81835;BME280;71272;52.166;4.498;2023-07-16T08:42:18;101099.31;;;20.72;60.61
81835;BME280;71272;52.166;4.498;2023-07-16T08:44:44;101097.75;;;21.20;57.92
81835;BME280;71272;52.166;4.498;2023-07-16T08:47:10;101104.75;;;20.79;60.55
81835;BME280;71272;52.166;4.498;2023-07-16T08:49:40;101095.69;;;20.49;61.04
81835;BME280;71272;52.166;4.498;2023-07-16T08:52:06;101111.78;;;20.21;62.35
81835;BME280;71272;52.166;4.498;2023-07-16T08:54:35;101092.72;;;20.09;62.82
81835;BME280;71272;52.166;4.498;2023-07-16T08:57:01;101106.47;;;19.88;63.15
81835;BME280;71272;52.166;4.498;2023-07-16T08:59:27;101114.69;;;20.52;61.76
81835;BME280;71272;52.166;4.498;2023-07-16T09:01:53;101110.97;;;20.65;61.21
81835;BME280;71272;52.166;4.498;2023-07-16T09:04:19;101120.94;;;20.60;61.77
81835;BME280;71272;52.166;4.498;2023-07-16T09:06:44;101116.16;;;23.76;51.05
81835;BME280;71272;52.166;4.498;2023-07-16T09:09:20;101123.69;;;24.42;48.35
81835;BME280;71272;52.166;4.498;2023-07-16T09:11:47;101123.91;;;23.27;51.36
81835;BME280;71272;52.166;4.498;2023-07-16T09:14:18;101125.16;;;22.13;54.19
81835;BME280;71272;52.166;4.498;2023-07-16T09:16:53;101119.94;;;22.21;53.01
81835;BME280;71272;52.166;4.498;2023-07-16T09:19:19;101125.03;;;22.87;49.90
81835;BME280;71272;52.166;4.498;2023-07-16T09:21:49;101128.81;;;24.23;45.31
81835;BME280;71272;52.166;4.498;2023-07-16T09:24:20;101136.69;;;22.56;49.94
81835;BME280;71272;52.166;4.498;2023-07-16T09:26:53;101108.97;;;21.92;51.70
81835;BME280;71272;52.166;4.498;2023-07-16T09:29:19;101113.06;;;21.54;54.07
81835;BME280;71272;52.166;4.498;2023-07-16T09:32:11;101107.38;;;21.72;54.22
81835;BME280;71272;52.166;4.498;2023-07-16T09:34:36;101107.09;;;23.68;49.18
81835;BME280;71272;52.166;4.498;2023-07-16T09:37:04;101134.75;;;23.23;50.91
81835;BME280;71272;52.166;4.498;2023-07-16T09:39:31;101111.56;;;22.69;52.00
81835;BME280;71272;52.166;4.498;2023-07-16T09:41:57;101123.38;;;22.62;50.05
81835;BME280;71272;52.166;4.498;2023-07-16T09:44:23;101160.22;;;21.95;51.45
81835;BME280;71272;52.166;4.498;2023-07-16T09:46:48;101122.25;;;21.49;51.97
81835;BME280;71272;52.166;4.498;2023-07-16T09:49:15;101154.94;;;21.17;54.19
81835;BME280;71272;52.166;4.498;2023-07-16T09:51:42;101142.41;;;20.52;57.42
81835;BME280;71272;52.166;4.498;2023-07-16T09:54:08;101156.47;;;19.89;63.09
81835;BME280;71272;52.166;4.498;2023-07-16T09:56:40;101182.16;;;20.77;61.39
81835;BME280;71272;52.166;4.498;2023-07-16T09:59:09;101152.22;;;21.13;59.20
81835;BME280;71272;52.166;4.498;2023-07-16T10:01:38;101150.50;;;21.56;57.86
81835;BME280;71272;52.166;4.498;2023-07-16T10:04:18;101148.31;;;22.15;55.44
81835;BME280;71272;52.166;4.498;2023-07-16T10:09:40;101155.25;;;24.56;46.60
81835;BME280;71272;52.166;4.498;2023-07-16T10:14:51;101158.00;;;22.46;50.57
81835;BME280;71272;52.166;4.498;2023-07-16T10:17:21;101152.00;;;21.39;54.05
81835;BME280;71272;52.166;4.498;2023-07-16T10:22:17;101200.75;;;24.78;42.58
81835;BME280;71272;52.166;4.498;2023-07-16T10:24:42;101186.22;;;25.82;39.52
81835;BME280;71272;52.166;4.498;2023-07-16T10:27:09;101194.03;;;26.43;37.22
81835;BME280;71272;52.166;4.498;2023-07-16T10:29:34;101197.84;;;26.81;36.53
81835;BME280;71272;52.166;4.498;2023-07-16T10:32:02;101204.50;;;24.85;40.61
81835;BME280;71272;52.166;4.498;2023-07-16T10:34:27;101202.22;;;25.03;40.64
81835;BME280;71272;52.166;4.498;2023-07-16T10:36:52;101204.03;;;25.16;39.62
81835;BME280;71272;52.166;4.498;2023-07-16T10:39:20;101195.69;;;25.33;38.72
81835;BME280;71272;52.166;4.498;2023-07-16T10:41:46;101168.13;;;24.22;40.74
81835;BME280;71272;52.166;4.498;2023-07-16T10:44:14;101190.81;;;23.63;42.51
81835;BME280;71272;52.166;4.498;2023-07-16T10:46:42;101191.00;;;24.31;41.96
81835;BME280;71272;52.166;4.498;2023-07-16T10:49:10;101197.34;;;23.63;42.08
81835;BME280;71272;52.166;4.498;2023-07-16T10:51:36;101200.38;;;24.86;38.54
81835;BME280;71272;52.166;4.498;2023-07-16T10:54:01;101229.75;;;26.37;35.40
81835;BME280;71272;52.166;4.498;2023-07-16T10:56:34;101201.00;;;23.64;39.75
81835;BME280;71272;52.166;4.498;2023-07-16T10:59:00;101232.56;;;23.45;41.90
81835;BME280;71272;52.166;4.498;2023-07-16T11:01:33;101234.28;;;23.10;41.05
81835;BME280;71272;52.166;4.498;2023-07-16T11:04:01;101219.47;;;22.32;43.30
81835;BME280;71272;52.166;4.498;2023-07-16T11:06:26;101234.19;;;22.76;44.51
81835;BME280;71272;52.166;4.498;2023-07-16T11:08:52;101225.97;;;25.04;39.03
81835;BME280;71272;52.166;4.498;2023-07-16T11:11:27;101253.88;;;25.03;38.14
81835;BME280;71272;52.166;4.498;2023-07-16T11:13:53;101221.13;;;24.95;38.06
81835;BME280;71272;52.166;4.498;2023-07-16T11:16:18;101242.38;;;24.74;38.84
81835;BME280;71272;52.166;4.498;2023-07-16T11:18:43;101253.78;;;24.44;39.61
81835;BME280;71272;52.166;4.498;2023-07-16T11:21:09;101255.06;;;25.41;37.13
81835;BME280;71272;52.166;4.498;2023-07-16T11:23:35;101256.03;;;25.09;37.75
81835;BME280;71272;52.166;4.498;2023-07-16T11:26:04;101252.22;;;23.71;40.10
81835;BME280;71272;52.166;4.498;2023-07-16T11:28:37;101263.66;;;24.43;37.87
81835;BME280;71272;52.166;4.498;2023-07-16T11:31:16;101257.13;;;25.11;36.63
81835;BME280;71272;52.166;4.498;2023-07-16T11:33:45;101256.44;;;24.72;35.19
81835;BME280;71272;52.166;4.498;2023-07-16T11:36:12;101233.66;;;24.29;36.30
81835;BME280;71272;52.166;4.498;2023-07-16T11:38:38;101262.38;;;23.72;38.60
81835;BME280;71272;52.166;4.498;2023-07-16T11:41:04;101264.72;;;24.07;38.35
81835;BME280;71272;52.166;4.498;2023-07-16T11:43:34;101258.22;;;23.73;39.66
81835;BME280;71272;52.166;4.498;2023-07-16T11:46:01;101260.88;;;23.43;39.71
81835;BME280;71272;52.166;4.498;2023-07-16T11:48:26;101240.16;;;23.15;40.72
81835;BME280;71272;52.166;4.498;2023-07-16T11:50:51;101264.16;;;23.18;38.35
81835;BME280;71272;52.166;4.498;2023-07-16T11:53:16;101272.44;;;23.07;39.04
81835;BME280;71272;52.166;4.498;2023-07-16T11:55:42;101276.88;;;23.17;39.05
81835;BME280;71272;52.166;4.498;2023-07-16T11:58:07;101271.06;;;23.44;39.28
81835;BME280;71272;52.166;4.498;2023-07-16T12:00:33;101275.19;;;23.43;40.23
81835;BME280;71272;52.166;4.498;2023-07-16T12:02:58;101293.78;;;23.48;39.91
81835;BME280;71272;52.166;4.498;2023-07-16T12:05:23;101292.84;;;23.42;37.85
81835;BME280;71272;52.166;4.498;2023-07-16T12:07:53;101276.41;;;23.52;37.50
81835;BME280;71272;52.166;4.498;2023-07-16T12:10:18;101277.13;;;23.37;38.18
81835;BME280;71272;52.166;4.498;2023-07-16T12:12:44;101241.59;;;23.11;39.16
81835;BME280;71272;52.166;4.498;2023-07-16T12:15:10;101253.53;;;22.72;40.51
81835;BME280;71272;52.166;4.498;2023-07-16T12:17:35;101271.31;;;22.86;40.31
81835;BME280;71272;52.166;4.498;2023-07-16T12:20:01;101289.59;;;23.07;40.31
81835;BME280;71272;52.166;4.498;2023-07-16T12:22:28;101289.78;;;23.03;39.48
81835;BME280;71272;52.166;4.498;2023-07-16T12:24:54;101287.72;;;23.03;40.70
81835;BME280;71272;52.166;4.498;2023-07-16T12:27:19;101273.41;;;22.57;40.83
81835;BME280;71272;52.166;4.498;2023-07-16T12:29:45;101296.25;;;22.21;42.13
81835;BME280;71272;52.166;4.498;2023-07-16T12:32:11;101289.91;;;22.26;43.05
81835;BME280;71272;52.166;4.498;2023-07-16T12:34:36;101307.88;;;22.35;43.01
81835;BME280;71272;52.166;4.498;2023-07-16T12:37:02;101299.44;;;22.78;42.09
81835;BME280;71272;52.166;4.498;2023-07-16T12:39:28;101313.09;;;22.28;42.28
81835;BME280;71272;52.166;4.498;2023-07-16T12:41:53;101292.91;;;22.22;42.11
81835;BME280;71272;52.166;4.498;2023-07-16T12:44:18;101303.09;;;22.32;42.69
81835;BME280;71272;52.166;4.498;2023-07-16T12:46:44;101284.22;;;22.44;41.31
81835;BME280;71272;52.166;4.498;2023-07-16T12:49:09;101308.50;;;22.58;41.40
81835;BME280;71272;52.166;4.498;2023-07-16T12:51:34;101326.16;;;23.12;41.41
81835;BME280;71272;52.166;4.498;2023-07-16T12:54:00;101287.06;;;22.90;40.74
81835;BME280;71272;52.166;4.498;2023-07-16T12:56:26;101323.75;;;23.19;41.58
81835;BME280;71272;52.166;4.498;2023-07-16T12:58:51;101322.34;;;23.06;42.78
81835;BME280;71272;52.166;4.498;2023-07-16T13:01:17;101327.41;;;22.92;42.52